sensor_id;sensor_type;location;lat;lon;timestamp;P1;durP1;ratioP1;P2;durP2;ratioP2
27684;SDS011;46113;50.130;8.526;2023-12-14T05:17:02;16.90;;;10.02;;
27684;SDS011;46113;50.130;8.526;2023-12-14T05:19:28;20.02;;;11.13;;
27684;SDS011;46113;50.130;8.526;2023-12-14T05:22:00;18.42;;;9.38;;
27684;SDS011;46113;50.130;8.526;2023-12-14T05:24:26;17.35;;;8.98;;
27684;SDS011;46113;50.130;8.526;2023-12-14T05:26:53;16.95;;;9.13;;
27684;SDS011;46113;50.130;8.526;2023-12-14T05:29:20;13.40;;;7.40;;
27684;SDS011;46113;50.130;8.526;2023-12-14T05:31:48;17.52;;;9.48;;
27684;SDS011;46113;50.130;8.526;2023-12-14T05:34:14;20.67;;;10.05;;
27684;SDS011;46113;50.130;8.526;2023-12-14T05:36:42;15.32;;;8.65;;
27684;SDS011;46113;50.130;8.526;2023-12-14T05:39:09;16.42;;;8.50;;
27684;SDS011;46113;50.130;8.526;2023-12-14T05:41:39;21.02;;;9.40;;
27684;SDS011;46113;50.130;8.526;2023-12-14T05:44:07;18.80;;;9.43;;
27684;SDS011;46113;50.130;8.526;2023-12-14T05:46:34;16.70;;;9.45;;
27684;SDS011;46113;50.130;8.526;2023-12-14T05:49:02;14.90;;;8.55;;
27684;SDS011;46113;50.130;8.526;2023-12-14T05:51:30;16.45;;;8.15;;
27684;SDS011;46113;50.130;8.526;2023-12-14T05:53:57;17.52;;;9.50;;
27684;SDS011;46113;50.130;8.526;2023-12-14T05:56:25;18.52;;;9.07;;
27684;SDS011;46113;50.130;8.526;2023-12-14T05:58:52;19.05;;;9.40;;
27684;SDS011;46113;50.130;8.526;2023-12-14T06:01:19;18.23;;;9.85;;
27684;SDS011;46113;50.130;8.526;2023-12-14T06:03:46;24.50;;;10.25;;
27684;SDS011;46113;50.130;8.526;2023-12-14T06:06:13;19.05;;;10.25;;
27684;SDS011;46113;50.130;8.526;2023-12-14T06:08:41;25.00;;;9.70;;
27684;SDS011;46113;50.130;8.526;2023-12-14T06:11:08;19.08;;;10.68;;
27684;SDS011;46113;50.130;8.526;2023-12-14T06:13:35;19.75;;;9.45;;
27684;SDS011;46113;50.130;8.526;2023-12-14T06:16:02;22.15;;;10.05;;
27684;SDS011;46113;50.130;8.526;2023-12-14T06:18:29;22.50;;;10.82;;
27684;SDS011;46113;50.130;8.526;2023-12-14T06:20:57;20.92;;;10.88;;
27684;SDS011;46113;50.130;8.526;2023-12-14T06:23:23;21.23;;;10.27;;
27684;SDS011;46113;50.130;8.526;2023-12-14T06:25:52;20.52;;;9.10;;
27684;SDS011;46113;50.130;8.526;2023-12-14T06:28:18;21.63;;;10.50;;
27684;SDS011;46113;50.130;8.526;2023-12-14T06:30:45;18.02;;;10.27;;
27684;SDS011;46113;50.130;8.526;2023-12-14T06:33:12;19.90;;;11.00;;
27684;SDS011;46113;50.130;8.526;2023-12-14T06:35:39;19.27;;;8.98;;
27684;SDS011;46113;50.130;8.526;2023-12-14T06:38:06;20.48;;;11.02;;
27684;SDS011;46113;50.130;8.526;2023-12-14T06:40:33;17.05;;;10.20;;
27684;SDS011;46113;50.130;8.526;2023-12-14T06:43:00;21.33;;;10.90;;
27684;SDS011;46113;50.130;8.526;2023-12-14T06:45:31;22.25;;;10.38;;
27684;SDS011;46113;50.130;8.526;2023-12-14T06:47:57;22.42;;;10.88;;
27684;SDS011;46113;50.130;8.526;2023-12-14T06:50:24;18.73;;;9.85;;
27684;SDS011;46113;50.130;8.526;2023-12-14T06:52:51;19.23;;;9.68;;
27684;SDS011;46113;50.130;8.526;2023-12-14T06:55:18;16.75;;;9.75;;
27684;SDS011;46113;50.130;8.526;2023-12-14T06:57:44;17.50;;;9.73;;
27684;SDS011;46113;50.130;8.526;2023-12-14T07:00:13;17.13;;;9.45;;
27684;SDS011;46113;50.130;8.526;2023-12-14T07:02:40;17.70;;;9.05;;
27684;SDS011;46113;50.130;8.526;2023-12-14T07:05:07;21.90;;;9.40;;
27684;SDS011;46113;50.130;8.526;2023-12-14T07:07:34;17.92;;;9.18;;
27684;SDS011;46113;50.130;8.526;2023-12-14T07:10:00;18.58;;;8.07;;
27684;SDS011;46113;50.130;8.526;2023-12-14T07:12:27;22.65;;;9.57;;
27684;SDS011;46113;50.130;8.526;2023-12-14T07:14:54;19.27;;;9.10;;
27684;SDS011;46113;50.130;8.526;2023-12-14T07:17:21;16.65;;;8.00;;
27684;SDS011;46113;50.130;8.526;2023-12-14T07:19:48;22.13;;;8.93;;
27684;SDS011;46113;50.130;8.526;2023-12-14T07:22:16;14.30;;;7.70;;
27684;SDS011;46113;50.130;8.526;2023-12-14T07:24:43;17.33;;;9.02;;
27684;SDS011;46113;50.130;8.526;2023-12-14T07:27:18;14.52;;;7.10;;
27684;SDS011;46113;50.130;8.526;2023-12-14T07:29:45;11.52;;;7.10;;
27684;SDS011;46113;50.130;8.526;2023-12-14T07:32:11;17.88;;;8.32;;
27684;SDS011;46113;50.130;8.526;2023-12-14T07:34:38;11.43;;;7.07;;
27684;SDS011;46113;50.130;8.526;2023-12-14T07:37:05;17.13;;;6.90;;
27684;SDS011;46113;50.130;8.526;2023-12-14T07:39:32;13.15;;;7.13;;
27684;SDS011;46113;50.130;8.526;2023-12-14T07:41:59;16.75;;;6.47;;
27684;SDS011;46113;50.130;8.526;2023-12-14T07:44:26;15.45;;;6.88;;
27684;SDS011;46113;50.130;8.526;2023-12-14T07:46:59;14.10;;;6.63;;
27684;SDS011;46113;50.130;8.526;2023-12-14T07:49:27;13.50;;;6.80;;
27684;SDS011;46113;50.130;8.526;2023-12-14T07:51:53;13.60;;;7.15;;
27684;SDS011;46113;50.130;8.526;2023-12-14T07:54:20;14.75;;;6.53;;
27684;SDS011;46113;50.130;8.526;2023-12-14T07:56:48;18.45;;;7.72;;
27684;SDS011;46113;50.130;8.526;2023-12-14T07:59:14;15.15;;;6.35;;
27684;SDS011;46113;50.130;8.526;2023-12-14T08:01:41;12.88;;;8.32;;
27684;SDS011;46113;50.130;8.526;2023-12-14T08:04:08;17.55;;;8.88;;
27684;SDS011;46113;50.130;8.526;2023-12-14T08:06:37;16.42;;;8.00;;
27684;SDS011;46113;50.130;8.526;2023-12-14T08:09:08;16.85;;;8.10;;
27684;SDS011;46113;50.130;8.526;2023-12-14T08:11:35;15.63;;;8.27;;
27684;SDS011;46113;50.130;8.526;2023-12-14T08:14:02;13.20;;;7.28;;
27684;SDS011;46113;50.130;8.526;2023-12-14T08:16:29;13.75;;;7.00;;
27684;SDS011;46113;50.130;8.526;2023-12-14T08:18:56;12.43;;;7.28;;
27684;SDS011;46113;50.130;8.526;2023-12-14T08:21:23;9.77;;;6.57;;
27684;SDS011;46113;50.130;8.526;2023-12-14T08:23:50;12.73;;;6.57;;
27684;SDS011;46113;50.130;8.526;2023-12-14T08:26:16;12.40;;;7.00;;
27684;SDS011;46113;50.130;8.526;2023-12-14T08:28:43;13.00;;;6.30;;
27684;SDS011;46113;50.130;8.526;2023-12-14T08:31:10;18.25;;;7.80;;
27684;SDS011;46113;50.130;8.526;2023-12-14T08:33:40;12.93;;;6.63;;
27684;SDS011;46113;50.130;8.526;2023-12-14T08:38:41;18.25;;;8.52;;
27684;SDS011;46113;50.130;8.526;2023-12-14T08:41:11;13.13;;;6.75;;
27684;SDS011;46113;50.130;8.526;2023-12-14T08:43:39;10.68;;;6.13;;
27684;SDS011;46113;50.130;8.526;2023-12-14T08:46:06;15.35;;;7.05;;
27684;SDS011;46113;50.130;8.526;2023-12-14T08:48:33;9.90;;;5.85;;
27684;SDS011;46113;50.130;8.526;2023-12-14T08:51:02;11.18;;;6.18;;
27684;SDS011;46113;50.130;8.526;2023-12-14T08:53:28;9.32;;;5.32;;
27684;SDS011;46113;50.130;8.526;2023-12-14T08:55:56;9.82;;;5.15;;
27684;SDS011;46113;50.130;8.526;2023-12-14T08:58:23;9.63;;;4.72;;
27684;SDS011;46113;50.130;8.526;2023-12-14T09:00:50;10.98;;;6.07;;
27684;SDS011;46113;50.130;8.526;2023-12-14T09:03:19;11.23;;;6.20;;
27684;SDS011;46113;50.130;8.526;2023-12-14T09:05:47;13.25;;;6.57;;
27684;SDS011;46113;50.130;8.526;2023-12-14T09:08:14;13.07;;;7.07;;
27684;SDS011;46113;50.130;8.526;2023-12-14T09:10:41;14.20;;;6.68;;
27684;SDS011;46113;50.130;8.526;2023-12-14T09:13:08;12.45;;;6.72;;
27684;SDS011;46113;50.130;8.526;2023-12-14T09:15:40;13.43;;;6.38;;
27684;SDS011;46113;50.130;8.526;2023-12-14T09:18:07;17.90;;;6.18;;
27684;SDS011;46113;50.130;8.526;2023-12-14T09:20:33;11.35;;;6.72;;
27684;SDS011;46113;50.130;8.526;2023-12-14T09:23:01;9.77;;;6.05;;
27684;SDS011;46113;50.130;8.526;2023-12-14T09:25:28;10.60;;;6.35;;
27684;SDS011;46113;50.130;8.526;2023-12-14T09:27:55;9.32;;;5.50;;
27684;SDS011;46113;50.130;8.526;2023-12-14T09:30:22;11.43;;;6.03;;
27684;SDS011;46113;50.130;8.526;2023-12-14T09:32:49;14.07;;;7.25;;
27684;SDS011;46113;50.130;8.526;2023-12-14T09:35:16;12.80;;;6.50;;
27684;SDS011;46113;50.130;8.526;2023-12-14T09:37:45;13.73;;;6.88;;
27684;SDS011;46113;50.130;8.526;2023-12-14T09:40:12;12.50;;;7.00;;
27684;SDS011;46113;50.130;8.526;2023-12-14T09:42:39;12.77;;;6.97;;
27684;SDS011;46113;50.130;8.526;2023-12-14T09:45:06;15.63;;;7.60;;
27684;SDS011;46113;50.130;8.526;2023-12-14T09:47:35;14.73;;;8.00;;
27684;SDS011;46113;50.130;8.526;2023-12-14T09:50:04;10.45;;;6.25;;
27684;SDS011;46113;50.130;8.526;2023-12-14T09:52:31;14.10;;;6.82;;
27684;SDS011;46113;50.130;8.526;2023-12-14T09:54:59;15.52;;;7.22;;
27684;SDS011;46113;50.130;8.526;2023-12-14T09:57:26;10.45;;;5.45;;
27684;SDS011;46113;50.130;8.526;2023-12-14T09:59:53;11.43;;;6.45;;
27684;SDS011;46113;50.130;8.526;2023-12-14T10:02:24;12.23;;;7.03;;
27684;SDS011;46113;50.130;8.526;2023-12-14T10:04:53;13.45;;;7.10;;
27684;SDS011;46113;50.130;8.526;2023-12-14T10:07:23;16.70;;;8.57;;
27684;SDS011;46113;50.130;8.526;2023-12-14T10:09:50;15.13;;;8.30;;
27684;SDS011;46113;50.130;8.526;2023-12-14T10:12:19;13.45;;;8.50;;
27684;SDS011;46113;50.130;8.526;2023-12-14T10:14:48;15.60;;;8.05;;
27684;SDS011;46113;50.130;8.526;2023-12-14T10:17:27;21.00;;;8.50;;
27684;SDS011;46113;50.130;8.526;2023-12-14T10:19:59;14.48;;;7.50;;
27684;SDS011;46113;50.130;8.526;2023-12-14T10:22:30;16.73;;;8.52;;
27684;SDS011;46113;50.130;8.526;2023-12-14T10:24:58;19.38;;;9.05;;
27684;SDS011;46113;50.130;8.526;2023-12-14T10:27:27;17.27;;;9.25;;
27684;SDS011;46113;50.130;8.526;2023-12-14T10:29:55;15.77;;;7.47;;
27684;SDS011;46113;50.130;8.526;2023-12-14T10:32:23;22.02;;;10.27;;
27684;SDS011;46113;50.130;8.526;2023-12-14T10:34:50;20.92;;;11.50;;
27684;SDS011;46113;50.130;8.526;2023-12-14T10:37:17;20.75;;;10.50;;
27684;SDS011;46113;50.130;8.526;2023-12-14T10:39:46;18.38;;;9.80;;
27684;SDS011;46113;50.130;8.526;2023-12-14T10:42:15;13.27;;;7.95;;
27684;SDS011;46113;50.130;8.526;2023-12-14T10:44:48;18.10;;;9.18;;
27684;SDS011;46113;50.130;8.526;2023-12-14T10:47:21;15.02;;;8.45;;
27684;SDS011;46113;50.130;8.526;2023-12-14T10:49:49;17.40;;;8.77;;
27684;SDS011;46113;50.130;8.526;2023-12-14T10:52:18;16.77;;;8.93;;
27684;SDS011;46113;50.130;8.526;2023-12-14T10:54:47;18.05;;;9.80;;
27684;SDS011;46113;50.130;8.526;2023-12-14T10:57:19;15.38;;;8.35;;
27684;SDS011;46113;50.130;8.526;2023-12-14T10:59:48;17.90;;;9.13;;
27684;SDS011;46113;50.130;8.526;2023-12-14T11:02:15;19.02;;;9.15;;
27684;SDS011;46113;50.130;8.526;2023-12-14T11:07:42;15.73;;;8.10;;
27684;SDS011;46113;50.130;8.526;2023-12-14T11:10:10;13.43;;;7.75;;
27684;SDS011;46113;50.130;8.526;2023-12-14T11:12:38;14.02;;;7.50;;
27684;SDS011;46113;50.130;8.526;2023-12-14T11:15:17;17.08;;;8.10;;
27684;SDS011;46113;50.130;8.526;2023-12-14T11:18:19;13.98;;;8.73;;
27684;SDS011;46113;50.130;8.526;2023-12-14T11:23:16;11.48;;;8.02;;
27684;SDS011;46113;50.130;8.526;2023-12-14T11:25:44;13.73;;;7.35;;
27684;SDS011;46113;50.130;8.526;2023-12-14T11:28:22;10.45;;;6.78;;
27684;SDS011;46113;50.130;8.526;2023-12-14T11:30:52;8.65;;;5.80;;
27684;SDS011;46113;50.130;8.526;2023-12-14T11:33:21;7.90;;;5.68;;
27684;SDS011;46113;50.130;8.526;2023-12-14T11:35:50;11.45;;;6.20;;
27684;SDS011;46113;50.130;8.526;2023-12-14T11:38:19;7.88;;;5.30;;
27684;SDS011;46113;50.130;8.526;2023-12-14T11:40:48;10.05;;;5.22;;
27684;SDS011;46113;50.130;8.526;2023-12-14T11:43:16;8.40;;;5.20;;
27684;SDS011;46113;50.130;8.526;2023-12-14T11:45:46;6.68;;;5.15;;
27684;SDS011;46113;50.130;8.526;2023-12-14T11:48:14;6.80;;;4.85;;
27684;SDS011;46113;50.130;8.526;2023-12-14T11:50:41;11.05;;;5.05;;
27684;SDS011;46113;50.130;8.526;2023-12-14T11:53:10;10.90;;;4.50;;
27684;SDS011;46113;50.130;8.526;2023-12-14T11:55:39;5.47;;;4.05;;
27684;SDS011;46113;50.130;8.526;2023-12-14T11:58:07;5.30;;;3.70;;
27684;SDS011;46113;50.130;8.526;2023-12-14T12:00:35;5.18;;;3.70;;
27684;SDS011;46113;50.130;8.526;2023-12-14T12:03:07;7.35;;;4.28;;
27684;SDS011;46113;50.130;8.526;2023-12-14T12:05:47;5.43;;;3.50;;
27684;SDS011;46113;50.130;8.526;2023-12-14T12:08:18;4.90;;;4.10;;
27684;SDS011;46113;50.130;8.526;2023-12-14T12:10:48;5.22;;;3.60;;
27684;SDS011;46113;50.130;8.526;2023-12-14T12:13:16;3.40;;;2.50;;
27684;SDS011;46113;50.130;8.526;2023-12-14T12:15:44;3.90;;;2.53;;
27684;SDS011;46113;50.130;8.526;2023-12-14T12:18:12;4.05;;;2.80;;
27684;SDS011;46113;50.130;8.526;2023-12-14T12:20:40;2.75;;;2.05;;
27684;SDS011;46113;50.130;8.526;2023-12-14T12:23:07;5.35;;;2.85;;
27684;SDS011;46113;50.130;8.526;2023-12-14T12:25:34;2.47;;;1.95;;
27684;SDS011;46113;50.130;8.526;2023-12-14T12:28:02;3.00;;;2.08;;
27684;SDS011;46113;50.130;8.526;2023-12-14T12:30:32;4.95;;;2.17;;
27684;SDS011;46113;50.130;8.526;2023-12-14T12:33:00;3.22;;;2.13;;
27684;SDS011;46113;50.130;8.526;2023-12-14T12:35:27;4.50;;;2.83;;
27684;SDS011;46113;50.130;8.526;2023-12-14T12:37:56;4.82;;;2.63;;
27684;SDS011;46113;50.130;8.526;2023-12-14T12:40:23;4.05;;;2.50;;
27684;SDS011;46113;50.130;8.526;2023-12-14T12:42:53;3.55;;;2.40;;
27684;SDS011;46113;50.130;8.526;2023-12-14T12:45:20;8.32;;;4.00;;
27684;SDS011;46113;50.130;8.526;2023-12-14T12:47:49;6.07;;;3.33;;
27684;SDS011;46113;50.130;8.526;2023-12-14T12:50:16;3.17;;;2.63;;
27684;SDS011;46113;50.130;8.526;2023-12-14T12:52:43;26.00;;;15.07;;
27684;SDS011;46113;50.130;8.526;2023-12-14T12:55:12;9.30;;;4.38;;
27684;SDS011;46113;50.130;8.526;2023-12-14T12:57:39;11.05;;;8.20;;
27684;SDS011;46113;50.130;8.526;2023-12-14T13:00:07;3.55;;;1.88;;
27684;SDS011;46113;50.130;8.526;2023-12-14T13:02:39;3.15;;;2.10;;
27684;SDS011;46113;50.130;8.526;2023-12-14T13:05:07;4.05;;;2.53;;
27684;SDS011;46113;50.130;8.526;2023-12-14T13:07:37;2.65;;;2.33;;
27684;SDS011;46113;50.130;8.526;2023-12-14T13:10:05;1.73;;;1.40;;
27684;SDS011;46113;50.130;8.526;2023-12-14T13:12:50;1.88;;;1.63;;
27684;SDS011;46113;50.130;8.526;2023-12-14T13:15:17;2.30;;;1.90;;
27684;SDS011;46113;50.130;8.526;2023-12-14T13:17:45;5.35;;;2.40;;
27684;SDS011;46113;50.130;8.526;2023-12-14T13:20:12;1.80;;;1.65;;
27684;SDS011;46113;50.130;8.526;2023-12-14T13:22:39;1.70;;;1.27;;
27684;SDS011;46113;50.130;8.526;2023-12-14T13:25:06;2.58;;;1.23;;
27684;SDS011;46113;50.130;8.526;2023-12-14T13:27:33;2.88;;;1.50;;
27684;SDS011;46113;50.130;8.526;2023-12-14T13:30:03;1.83;;;1.33;;
27684;SDS011;46113;50.130;8.526;2023-12-14T13:32:30;1.27;;;1.13;;
27684;SDS011;46113;50.130;8.526;2023-12-14T13:34:57;3.67;;;1.52;;
27684;SDS011;46113;50.130;8.526;2023-12-14T13:37:24;1.52;;;1.10;;
27684;SDS011;46113;50.130;8.526;2023-12-14T13:39:51;2.08;;;0.82;;
27684;SDS011;46113;50.130;8.526;2023-12-14T13:42:19;1.30;;;1.20;;
27684;SDS011;46113;50.130;8.526;2023-12-14T13:44:46;1.13;;;0.90;;
27684;SDS011;46113;50.130;8.526;2023-12-14T13:47:13;3.90;;;1.33;;
27684;SDS011;46113;50.130;8.526;2023-12-14T13:49:40;1.08;;;1.02;;
27684;SDS011;46113;50.130;8.526;2023-12-14T13:52:06;1.75;;;1.17;;
27684;SDS011;46113;50.130;8.526;2023-12-14T13:54:33;1.23;;;1.13;;
27684;SDS011;46113;50.130;8.526;2023-12-14T13:57:00;1.88;;;1.20;;
27684;SDS011;46113;50.130;8.526;2023-12-14T13:59:27;1.80;;;0.95;;
27684;SDS011;46113;50.130;8.526;2023-12-14T14:01:54;1.20;;;0.90;;
27684;SDS011;46113;50.130;8.526;2023-12-14T14:04:20;1.58;;;1.08;;
27684;SDS011;46113;50.130;8.526;2023-12-14T14:06:47;1.65;;;0.90;;
27684;SDS011;46113;50.130;8.526;2023-12-14T14:09:14;2.25;;;0.93;;
27684;SDS011;46113;50.130;8.526;2023-12-14T14:11:41;0.95;;;0.75;;
27684;SDS011;46113;50.130;8.526;2023-12-14T14:14:12;0.90;;;0.70;;
27684;SDS011;46113;50.130;8.526;2023-12-14T14:16:39;1.38;;;1.27;;
27684;SDS011;46113;50.130;8.526;2023-12-14T14:19:05;1.33;;;1.17;;
27684;SDS011;46113;50.130;8.526;2023-12-14T14:21:32;1.00;;;0.90;;
27684;SDS011;46113;50.130;8.526;2023-12-14T14:23:59;0.77;;;0.60;;
27684;SDS011;46113;50.130;8.526;2023-12-14T14:26:26;1.98;;;0.90;;
27684;SDS011;46113;50.130;8.526;2023-12-14T14:28:52;3.30;;;0.70;;
27684;SDS011;46113;50.130;8.526;2023-12-14T14:31:22;0.90;;;0.60;;
27684;SDS011;46113;50.130;8.526;2023-12-14T14:33:48;1.17;;;0.70;;
27684;SDS011;46113;50.130;8.526;2023-12-14T14:36:15;0.80;;;0.60;;
27684;SDS011;46113;50.130;8.526;2023-12-14T14:38:42;3.50;;;1.30;;
27684;SDS011;46113;50.130;8.526;2023-12-14T14:41:09;0.80;;;0.80;;
27684;SDS011;46113;50.130;8.526;2023-12-14T14:43:36;0.70;;;0.70;;
27684;SDS011;46113;50.130;8.526;2023-12-14T14:46:03;0.82;;;0.80;;
27684;SDS011;46113;50.130;8.526;2023-12-14T14:48:29;54.88;;;22.40;;
27684;SDS011;46113;50.130;8.526;2023-12-14T14:50:56;33.50;;;13.13;;
27684;SDS011;46113;50.130;8.526;2023-12-14T14:53:23;87.05;;;33.70;;
27684;SDS011;46113;50.130;8.526;2023-12-14T14:55:50;194.18;;;68.75;;
27684;SDS011;46113;50.130;8.526;2023-12-14T14:58:22;109.78;;;44.05;;
27684;SDS011;46113;50.130;8.526;2023-12-14T15:00:48;9.63;;;6.18;;
27684;SDS011;46113;50.130;8.526;2023-12-14T15:03:15;1.85;;;1.40;;
27684;SDS011;46113;50.130;8.526;2023-12-14T15:05:42;0.65;;;0.65;;
27684;SDS011;46113;50.130;8.526;2023-12-14T15:08:09;0.52;;;0.52;;
27684;SDS011;46113;50.130;8.526;2023-12-14T15:10:36;0.30;;;0.30;;
27684;SDS011;46113;50.130;8.526;2023-12-14T15:13:03;1.48;;;0.63;;
27684;SDS011;46113;50.130;8.526;2023-12-14T15:15:29;1.48;;;0.77;;
27684;SDS011;46113;50.130;8.526;2023-12-14T15:17:58;1.45;;;0.77;;
27684;SDS011;46113;50.130;8.526;2023-12-14T15:20:24;2.78;;;0.73;;
27684;SDS011;46113;50.130;8.526;2023-12-14T15:22:51;1.33;;;0.63;;
27684;SDS011;46113;50.130;8.526;2023-12-14T15:25:27;1.15;;;0.82;;
27684;SDS011;46113;50.130;8.526;2023-12-14T15:27:53;1.83;;;0.80;;
27684;SDS011;46113;50.130;8.526;2023-12-14T15:30:20;1.40;;;1.27;;
27684;SDS011;46113;50.130;8.526;2023-12-14T15:32:47;1.20;;;1.10;;
27684;SDS011;46113;50.130;8.526;2023-12-14T15:35:13;1.67;;;1.20;;
27684;SDS011;46113;50.130;8.526;2023-12-14T15:37:40;1.00;;;0.88;;
27684;SDS011;46113;50.130;8.526;2023-12-14T15:40:07;1.88;;;1.10;;
27684;SDS011;46113;50.130;8.526;2023-12-14T15:42:34;3.97;;;3.05;;
27684;SDS011;46113;50.130;8.526;2023-12-14T15:45:02;3.17;;;1.80;;
27684;SDS011;46113;50.130;8.526;2023-12-14T15:47:31;23.08;;;11.82;;
27684;SDS011;46113;50.130;8.526;2023-12-14T15:49:58;9.30;;;5.47;;
27684;SDS011;46113;50.130;8.526;2023-12-14T15:52:25;4.70;;;2.50;;
27684;SDS011;46113;50.130;8.526;2023-12-14T15:54:51;11.95;;;6.95;;
27684;SDS011;46113;50.130;8.526;2023-12-14T15:57:18;26.42;;;15.88;;
27684;SDS011;46113;50.130;8.526;2023-12-14T15:59:45;11.73;;;6.78;;
27684;SDS011;46113;50.130;8.526;2023-12-14T16:02:12;12.40;;;7.40;;
27684;SDS011;46113;50.130;8.526;2023-12-14T16:04:39;10.65;;;5.88;;
27684;SDS011;46113;50.130;8.526;2023-12-14T16:07:06;10.48;;;6.28;;
27684;SDS011;46113;50.130;8.526;2023-12-14T16:09:33;2.78;;;2.40;;
27684;SDS011;46113;50.130;8.526;2023-12-14T16:11:59;2.60;;;2.20;;
27684;SDS011;46113;50.130;8.526;2023-12-14T16:14:29;3.17;;;2.50;;
27684;SDS011;46113;50.130;8.526;2023-12-14T16:16:56;2.38;;;2.20;;
27684;SDS011;46113;50.130;8.526;2023-12-14T16:19:23;3.78;;;3.13;;
27684;SDS011;46113;50.130;8.526;2023-12-14T16:21:50;7.07;;;4.03;;
27684;SDS011;46113;50.130;8.526;2023-12-14T16:24:17;4.03;;;3.55;;
27684;SDS011;46113;50.130;8.526;2023-12-14T16:26:43;2.92;;;2.72;;
27684;SDS011;46113;50.130;8.526;2023-12-14T16:29:17;6.80;;;5.38;;
27684;SDS011;46113;50.130;8.526;2023-12-14T16:31:44;3.03;;;2.67;;
27684;SDS011;46113;50.130;8.526;2023-12-14T16:34:12;11.50;;;6.32;;
27684;SDS011;46113;50.130;8.526;2023-12-14T16:36:39;8.13;;;4.95;;
27684;SDS011;46113;50.130;8.526;2023-12-14T16:39:07;3.78;;;1.95;;
27684;SDS011;46113;50.130;8.526;2023-12-14T16:41:37;1.83;;;1.70;;
27684;SDS011;46113;50.130;8.526;2023-12-14T16:44:04;4.25;;;2.97;;
27684;SDS011;46113;50.130;8.526;2023-12-14T16:46:31;3.92;;;3.53;;
27684;SDS011;46113;50.130;8.526;2023-12-14T16:48:58;2.30;;;1.48;;
27684;SDS011;46113;50.130;8.526;2023-12-14T16:51:24;3.53;;;2.22;;
27684;SDS011;46113;50.130;8.526;2023-12-14T16:53:51;4.50;;;3.00;;
27684;SDS011;46113;50.130;8.526;2023-12-14T16:56:18;10.35;;;6.05;;
27684;SDS011;46113;50.130;8.526;2023-12-14T16:58:45;5.65;;;2.80;;
27684;SDS011;46113;50.130;8.526;2023-12-14T17:01:12;3.10;;;1.92;;
27684;SDS011;46113;50.130;8.526;2023-12-14T17:03:39;3.17;;;2.38;;
27684;SDS011;46113;50.130;8.526;2023-12-14T17:06:06;3.35;;;2.50;;
27684;SDS011;46113;50.130;8.526;2023-12-14T17:08:34;6.75;;;2.75;;
27684;SDS011;46113;50.130;8.526;2023-12-14T17:11:02;2.45;;;2.22;;
27684;SDS011;46113;50.130;8.526;2023-12-14T17:13:28;7.68;;;4.45;;
27684;SDS011;46113;50.130;8.526;2023-12-14T17:15:55;3.15;;;2.35;;
27684;SDS011;46113;50.130;8.526;2023-12-14T17:18:22;5.60;;;3.50;;
27684;SDS011;46113;50.130;8.526;2023-12-14T17:20:49;6.53;;;4.68;;
27684;SDS011;46113;50.130;8.526;2023-12-14T17:23:16;5.80;;;3.15;;
27684;SDS011;46113;50.130;8.526;2023-12-14T17:25:42;3.72;;;2.58;;
27684;SDS011;46113;50.130;8.526;2023-12-14T17:28:09;4.35;;;2.40;;
27684;SDS011;46113;50.130;8.526;2023-12-14T17:33:38;5.35;;;3.80;;
27684;SDS011;46113;50.130;8.526;2023-12-14T17:36:05;13.95;;;5.85;;
27684;SDS011;46113;50.130;8.526;2023-12-14T17:38:32;21.45;;;11.15;;
27684;SDS011;46113;50.130;8.526;2023-12-14T17:40:59;7.50;;;5.00;;
27684;SDS011;46113;50.130;8.526;2023-12-14T17:43:31;9.73;;;6.15;;
27684;SDS011;46113;50.130;8.526;2023-12-14T17:45:58;8.77;;;5.47;;
27684;SDS011;46113;50.130;8.526;2023-12-14T17:48:25;9.02;;;6.22;;
27684;SDS011;46113;50.130;8.526;2023-12-14T17:50:52;11.50;;;7.43;;
27684;SDS011;46113;50.130;8.526;2023-12-14T17:53:18;9.75;;;6.78;;
27684;SDS011;46113;50.130;8.526;2023-12-14T17:55:45;10.93;;;5.35;;
27684;SDS011;46113;50.130;8.526;2023-12-14T17:58:12;10.98;;;6.25;;
27684;SDS011;46113;50.130;8.526;2023-12-14T18:00:39;9.38;;;5.10;;
27684;SDS011;46113;50.130;8.526;2023-12-14T18:03:05;7.07;;;4.60;;
27684;SDS011;46113;50.130;8.526;2023-12-14T18:05:32;7.90;;;5.38;;
27684;SDS011;46113;50.130;8.526;2023-12-14T18:08:00;7.30;;;4.63;;
27684;SDS011;46113;50.130;8.526;2023-12-14T18:10:32;7.50;;;5.68;;
27684;SDS011;46113;50.130;8.526;2023-12-14T18:13:07;8.77;;;5.43;;
27684;SDS011;46113;50.130;8.526;2023-12-14T18:21:32;9.25;;;5.30;;
27684;SDS011;46113;50.130;8.526;2023-12-14T18:23:59;7.93;;;5.65;;
27684;SDS011;46113;50.130;8.526;2023-12-14T18:26:26;6.53;;;4.95;;
27684;SDS011;46113;50.130;8.526;2023-12-14T18:28:52;10.15;;;6.00;;
27684;SDS011;46113;50.130;8.526;2023-12-14T18:31:19;9.45;;;5.60;;
27684;SDS011;46113;50.130;8.526;2023-12-14T18:33:46;8.73;;;5.55;;
27684;SDS011;46113;50.130;8.526;2023-12-14T18:36:18;8.35;;;5.22;;
27684;SDS011;46113;50.130;8.526;2023-12-14T18:38:46;7.07;;;4.55;;
27684;SDS011;46113;50.130;8.526;2023-12-14T18:41:16;9.25;;;6.13;;
27684;SDS011;46113;50.130;8.526;2023-12-14T18:43:56;9.82;;;6.00;;
27684;SDS011;46113;50.130;8.526;2023-12-14T18:46:23;9.13;;;5.80;;
27684;SDS011;46113;50.130;8.526;2023-12-14T18:48:50;10.77;;;6.10;;
27684;SDS011;46113;50.130;8.526;2023-12-14T18:51:17;10.57;;;5.97;;
27684;SDS011;46113;50.130;8.526;2023-12-14T18:53:48;7.97;;;5.38;;
27684;SDS011;46113;50.130;8.526;2023-12-14T18:56:18;9.88;;;6.68;;
27684;SDS011;46113;50.130;8.526;2023-12-14T18:58:46;12.30;;;6.15;;
27684;SDS011;46113;50.130;8.526;2023-12-14T19:01:24;8.52;;;5.22;;
27684;SDS011;46113;50.130;8.526;2023-12-14T19:03:51;8.20;;;5.68;;
27684;SDS011;46113;50.130;8.526;2023-12-14T19:06:20;9.38;;;6.15;;
27684;SDS011;46113;50.130;8.526;2023-12-14T19:08:48;7.95;;;5.50;;
27684;SDS011;46113;50.130;8.526;2023-12-14T19:11:16;6.78;;;4.70;;
27684;SDS011;46113;50.130;8.526;2023-12-14T19:13:44;9.45;;;6.03;;
27684;SDS011;46113;50.130;8.526;2023-12-14T19:16:12;11.05;;;6.05;;
27684;SDS011;46113;50.130;8.526;2023-12-14T19:18:50;6.63;;;4.88;;
27684;SDS011;46113;50.130;8.526;2023-12-14T19:21:18;8.23;;;5.25;;
27684;SDS011;46113;50.130;8.526;2023-12-14T19:23:46;6.75;;;4.97;;
27684;SDS011;46113;50.130;8.526;2023-12-14T19:26:23;10.52;;;6.32;;
27684;SDS011;46113;50.130;8.526;2023-12-14T19:28:53;12.57;;;6.13;;
27684;SDS011;46113;50.130;8.526;2023-12-14T19:31:24;10.15;;;7.00;;
27684;SDS011;46113;50.130;8.526;2023-12-14T19:33:51;10.48;;;6.25;;
27684;SDS011;46113;50.130;8.526;2023-12-14T19:36:18;9.02;;;5.50;;
27684;SDS011;46113;50.130;8.526;2023-12-14T19:38:46;7.65;;;5.40;;
27684;SDS011;46113;50.130;8.526;2023-12-14T19:41:19;26.75;;;13.15;;
27684;SDS011;46113;50.130;8.526;2023-12-14T19:43:46;21.80;;;12.73;;
27684;SDS011;46113;50.130;8.526;2023-12-14T19:46:14;12.75;;;8.63;;
27684;SDS011;46113;50.130;8.526;2023-12-14T19:48:42;11.95;;;7.72;;
27684;SDS011;46113;50.130;8.526;2023-12-14T19:51:09;8.43;;;5.68;;
27684;SDS011;46113;50.130;8.526;2023-12-14T19:53:36;9.10;;;6.20;;
27684;SDS011;46113;50.130;8.526;2023-12-14T19:56:03;8.80;;;5.75;;
27684;SDS011;46113;50.130;8.526;2023-12-14T19:58:33;9.85;;;6.25;;
27684;SDS011;46113;50.130;8.526;2023-12-14T20:01:00;9.48;;;5.85;;
27684;SDS011;46113;50.130;8.526;2023-12-14T20:03:27;9.65;;;5.97;;
27684;SDS011;46113;50.130;8.526;2023-12-14T20:05:54;9.05;;;6.10;;
27684;SDS011;46113;50.130;8.526;2023-12-14T20:08:21;10.15;;;6.78;;
27684;SDS011;46113;50.130;8.526;2023-12-14T20:10:48;9.05;;;6.22;;
27684;SDS011;46113;50.130;8.526;2023-12-14T20:13:15;51.22;;;17.88;;
27684;SDS011;46113;50.130;8.526;2023-12-14T20:15:48;45.87;;;16.97;;
27684;SDS011;46113;50.130;8.526;2023-12-14T20:18:15;23.67;;;11.80;;